Flight Track Log - Related Links

Times and Time Zones

All times are in EDT time to prevent confusion due to time zone crossing. See the N102VU flight status page for this flight to view local times or setup timezone preferences in your user account.

Time Position Orientation Groundspeed Altitude Reporting Facility
EDT Latitude Longitude Course Direction KTS MPH feet Rate Location/Type
Mon 08:30:37 PM 36.1333 -86.8000 270° West 88 101 1,000  Level Nashville TRACON
Mon 08:32:01 PM 36.1333 -86.8333 270° West 103 119 2,200 839 Climbing Nashville TRACON
Mon 08:33:00 PM 36.1103 -86.8244 163° South 58 67 3,000 353 Climbing Memphis Center
Mon 08:34:00 PM 36.0867 -86.8022 143° Southeast 89 102 2,900 -50 Descending Memphis Center
Mon 08:35:00 PM 36.0589 -86.7778 145° Southeast 114 131 2,900  Level Memphis Center
Mon 08:36:00 PM 36.0353 -86.7558 143° Southeast 120 138 2,900 50 Level Memphis Center
Mon 08:37:00 PM 36.0097 -86.7314 142° Southeast 120 138 3,000  Climbing Memphis Center
Mon 08:38:00 PM 35.9839 -86.7094 145° Southeast 120 138 2,900  Descending Memphis Center
Mon 08:39:00 PM 35.9583 -86.6847 142° Southeast 128 147 3,000 50 Climbing Memphis Center
Mon 08:40:00 PM 35.9325 -86.6603 143° Southeast 128 147 3,000  Level Memphis Center
Mon 08:41:00 PM 35.9047 -86.6358 145° Southeast 128 147 3,000  Level Memphis Center
Mon 08:42:00 PM 35.8789 -86.6114 143° Southeast 122 140 3,000  Level Memphis Center
Mon 08:43:00 PM 35.8489 -86.5847 144° Southeast 122 140 3,000 200 Level Memphis Center
Mon 08:44:00 PM 35.8272 -86.5628 141° Southeast 117 135 3,400 200 Climbing Memphis Center
Mon 08:45:00 PM 35.8136 -86.5250 114° Southeast 112 129 3,400  Level Memphis Center
Mon 08:46:00 PM 35.7958 -86.4925 124° Southeast 112 129 3,400  Level Memphis Center
Mon 08:47:00 PM 35.7803 -86.4572 119° Southeast 117 135 3,400  Level Memphis Center
Mon 08:48:00 PM 35.7625 -86.4250 124° Southeast 117 135 3,400  Level Memphis Center
Mon 08:49:00 PM 35.7469 -86.3900 119° Southeast 122 140 3,400  Level Memphis Center
Mon 08:50:00 PM 35.7311 -86.3575 121° Southeast 122 140 3,400  Level Memphis Center
Mon 08:51:00 PM 35.7133 -86.3225 122° Southeast 122 140 3,400  Level Memphis Center
Mon 08:52:00 PM 35.6956 -86.2850 120° Southeast 122 140 3,400 50 Level Memphis Center
Mon 08:53:00 PM 35.6800 -86.2578 125° Southeast 122 140 3,500  Climbing Memphis Center
Mon 08:54:00 PM 35.6642 -86.2175 116° Southeast 117 135 3,400 -50 Descending Memphis Center
Mon 08:55:00 PM 35.6464 -86.1853 124° Southeast 117 135 3,400  Level Memphis Center
Mon 08:56:00 PM 35.6286 -86.1528 124° Southeast 122 140 3,400  Level Memphis Center
Mon 08:57:00 PM 35.6116 -86.1213 124° Southeast  Level FlightAware Approximate
Mon 08:57:00 PM 35.6106 -86.1131 124° Southeast 122 140 3,400  Level Memphis Center
Mon 08:58:00 PM 35.5786 -86.0967 157° South 122 140 3,400  Level Memphis Center
Mon 08:59:00 PM 35.5469 -86.0806 158° South 122 140 3,400  Level Memphis Center
Mon 09:00:00 PM 35.5172 -86.0692 163° South 122 140 3,400  Level Memphis Center
Mon 09:01:00 PM 35.4856 -86.0556 161° South 117 135 3,400  Level Memphis Center
Mon 09:02:00 PM 35.4658 -86.0897 235° Southwest 107 123 3,400  Level Memphis Center

Login

Don't have an account? Register now (free) for customized features, flight alerts, and more!